Time;durP1;ratioP1;P1;durP2;ratioP2;P2;SDS_P1;SDS_P2;PMS_P1;PMS_P2;Temp;Humidity;BMP_temperature;BMP_pressure;BME280_temperature;BME280_humidity;BME280_pressure;Samples;Min_cycle;Max_cycle;Signal;HPM_P1;HPM_P2
2021/05/28 00:01:28;;;;;;;4.37;2.27;;;;;;;6.41;100.00;94249.19;5072408;28;20203;-79
2021/05/28 00:03:53;;;;;;;7.00;1.90;;;;;;;6.30;100.00;94245.13;5072732;28;20206;-78
2021/05/28 00:06:22;;;;;;;3.63;2.10;;;;;;;6.26;100.00;94248.19;5072540;28;20562;-77
2021/05/28 00:08:48;;;;;;;4.07;2.30;;;;;;;6.21;100.00;94234.91;5072347;28;20203;-78
2021/05/28 00:11:15;;;;;;;6.73;2.10;;;;;;;6.18;100.00;94245.59;5072393;28;20724;-78
2021/05/28 00:13:41;;;;;;;5.97;2.57;;;;;;;6.23;100.00;94241.56;5072359;28;20217;-78
2021/05/28 00:16:07;;;;;;;4.73;2.57;;;;;;;6.26;100.00;94246.41;5072233;28;20206;-78
2021/05/28 00:18:33;;;;;;;6.77;2.43;;;;;;;6.26;100.00;94246.41;5072513;28;20581;-77
2021/05/28 00:20:59;;;;;;;3.37;2.33;;;;;;;6.22;100.00;94245.13;5071922;28;20256;-77
2021/05/28 00:23:25;;;;;;;4.73;2.20;;;;;;;6.16;100.00;94238.00;5072366;28;20229;-77
2021/05/28 00:25:51;;;;;;;2.17;1.97;;;;;;;6.04;100.00;94236.69;5072198;28;20195;-77
2021/05/28 00:28:19;;;;;;;2.20;1.93;;;;;;;5.91;100.00;94237.13;5072299;28;20260;-78
2021/05/28 00:30:45;;;;;;;6.17;1.97;;;;;;;5.81;100.00;94247.66;5071909;28;20704;-78
2021/05/28 00:33:11;;;;;;;3.23;2.33;;;;;;;5.81;100.00;94246.81;5073598;28;20198;-77
2021/05/28 00:35:37;;;;;;;4.60;2.50;;;;;;;5.74;100.00;94249.25;5075940;28;20194;-78
2021/05/28 00:38:03;;;;;;;3.57;2.20;;;;;;;5.65;100.00;94255.38;5077895;28;20240;-77
2021/05/28 00:40:28;;;;;;;3.20;2.13;;;;;;;5.52;100.00;94259.22;5075673;28;20202;-79
2021/05/28 00:42:54;;;;;;;3.00;2.07;;;;;;;5.42;100.00;94260.34;5075545;28;20547;-80
2021/05/28 00:45:21;;;;;;;3.40;2.67;;;;;;;5.46;100.00;94266.81;5075387;28;20281;-77
2021/05/28 00:47:47;;;;;;;6.50;2.83;;;;;;;5.40;100.00;94260.47;5075715;28;20202;-78
2021/05/28 00:50:14;;;;;;;4.13;2.77;;;;;;;5.39;100.00;94271.78;5075485;28;20238;-77
2021/05/28 00:52:40;;;;;;;4.63;2.57;;;;;;;5.34;100.00;94268.88;5075519;28;20199;-77
2021/05/28 00:55:07;;;;;;;4.67;2.43;;;;;;;5.27;100.00;94254.94;5075397;28;20245;-76
2021/05/28 00:57:35;;;;;;;3.97;2.50;;;;;;;5.28;100.00;94256.53;5075393;28;20214;-76
2021/05/28 01:00:03;;;;;;;4.00;2.17;;;;;;;5.37;100.00;94258.19;5075124;28;20198;-77
2021/05/28 01:02:31;;;;;;;3.47;2.43;;;;;;;5.42;100.00;94262.91;5075409;28;20203;-77
2021/05/28 01:04:58;;;;;;;4.27;2.40;;;;;;;5.46;100.00;94253.84;5075414;28;20230;-78
2021/05/28 01:07:24;;;;;;;4.00;2.50;;;;;;;5.44;100.00;94266.16;5075402;28;20195;-78
2021/05/28 01:09:49;;;;;;;3.70;2.37;;;;;;;5.41;100.00;94249.16;5075012;28;20234;-77
2021/05/28 01:12:16;;;;;;;5.23;2.77;;;;;;;5.30;100.00;94255.44;5075045;28;20202;-78
2021/05/28 01:14:43;;;;;;;3.97;2.47;;;;;;;5.25;100.00;94252.50;5074976;28;20203;-77
2021/05/28 01:17:09;;;;;;;3.53;2.13;;;;;;;5.21;100.00;94250.38;5075244;28;20284;-77
2021/05/28 01:19:36;;;;;;;4.60;2.57;;;;;;;5.15;100.00;94255.22;5075159;28;20203;-76
2021/05/28 01:22:04;;;;;;;5.03;3.47;;;;;;;5.24;100.00;94250.88;5074940;28;20207;-77
2021/05/28 01:24:31;;;;;;;5.60;2.37;;;;;;;5.23;100.00;94261.38;5074766;28;20234;-78
2021/05/28 01:26:58;;;;;;;6.90;3.63;;;;;;;5.10;100.00;94252.28;5074763;28;20724;-78
2021/05/28 01:29:24;;;;;;;6.10;2.20;;;;;;;5.01;100.00;94255.78;5074950;28;20198;-77
2021/05/28 01:31:50;;;;;;;7.47;2.63;;;;;;;4.99;100.00;94252.53;5074983;28;20539;-80
2021/05/28 01:34:16;;;;;;;6.83;2.57;;;;;;;4.88;100.00;94255.38;5074781;28;20203;-78
2021/05/28 01:36:42;;;;;;;6.23;3.13;;;;;;;4.80;100.00;94246.63;5073593;28;20445;-78
2021/05/28 01:39:10;;;;;;;3.60;2.57;;;;;;;4.85;100.00;94251.34;5074754;28;20535;-78
2021/05/28 01:41:36;;;;;;;4.73;2.63;;;;;;;4.78;100.00;94251.16;5074405;28;20207;-77
2021/05/28 01:44:07;;;;;;;4.23;2.37;;;;;;;4.75;100.00;94254.03;5074878;28;20206;-78
2021/05/28 01:46:33;;;;;;;7.93;2.73;;;;;;;4.69;100.00;94246.06;5074552;28;20266;-78
2021/05/28 01:49:00;;;;;;;4.37;2.70;;;;;;;4.61;100.00;94244.25;5074467;28;20238;-77
2021/05/28 01:51:26;;;;;;;5.60;2.83;;;;;;;4.56;100.00;94239.53;5074442;28;20585;-78
2021/05/28 01:53:52;;;;;;;4.83;2.90;;;;;;;4.52;100.00;94240.00;5074470;28;20206;-78
2021/05/28 01:56:18;;;;;;;4.20;2.93;;;;;;;4.43;100.00;94241.72;5074398;28;20210;-78
2021/05/28 01:58:44;;;;;;;4.73;2.57;;;;;;;4.46;100.00;94238.81;5074234;28;20210;-78
2021/05/28 02:01:10;;;;;;;8.60;3.03;;;;;;;4.45;100.00;94229.44;5074311;28;20203;-78
2021/05/28 02:03:36;;;;;;;9.23;3.70;;;;;;;4.54;100.00;94230.31;5074164;28;20198;-78
2021/05/28 02:06:02;;;;;;;5.57;3.10;;;;;;;4.54;100.00;94230.31;5074133;28;20205;-77
2021/05/28 02:08:28;;;;;;;7.33;3.60;;;;;;;4.44;100.00;94231.19;5074085;28;20290;-77
2021/05/28 02:10:54;;;;;;;4.40;2.67;;;;;;;4.42;100.00;94227.97;5073728;28;20633;-78
2021/05/28 02:13:21;;;;;;;5.03;3.30;;;;;;;4.35;100.00;94224.38;5074023;28;20285;-79
2021/05/28 02:15:47;;;;;;;10.60;3.40;;;;;;;4.38;100.00;94229.25;5074092;28;20203;-77
2021/05/28 02:18:13;;;;;;;5.53;3.10;;;;;;;4.31;100.00;94228.19;5073783;28;20198;-80
2021/05/28 02:20:40;;;;;;;4.07;3.03;;;;;;;4.34;100.00;94227.91;5073631;28;20584;-78
2021/05/28 02:23:06;;;;;;;3.83;3.03;;;;;;;4.24;100.00;94240.13;5073497;28;20325;-79
2021/05/28 02:25:32;;;;;;;10.77;2.90;;;;;;;4.13;100.00;94237.75;5073585;28;20215;-81
2021/05/28 02:27:58;;;;;;;5.97;3.10;;;;;;;4.10;100.00;94244.06;5073714;28;20210;-78
2021/05/28 02:30:25;;;;;;;11.27;3.20;;;;;;;4.04;100.00;94242.84;5073665;28;20237;-78
2021/05/28 02:32:51;;;;;;;4.77;3.10;;;;;;;4.06;100.00;94238.38;5076018;28;20539;-78
2021/05/28 02:35:17;;;;;;;7.23;3.27;;;;;;;4.07;100.00;94239.97;5073529;28;20201;-78
2021/05/28 02:37:43;;;;;;;7.70;3.53;;;;;;;4.07;100.00;94247.72;5073501;28;20678;-80
2021/05/28 02:40:10;;;;;;;4.23;3.20;;;;;;;3.99;100.00;94234.75;5073267;28;20657;-78
2021/05/28 02:42:36;;;;;;;7.47;3.23;;;;;;;3.96;100.00;94239.41;5073464;28;20214;-78
2021/05/28 02:45:04;;;;;;;5.83;2.87;;;;;;;4.02;100.00;94246.56;5073375;28;20209;-78
2021/05/28 02:47:31;;;;;;;8.33;3.30;;;;;;;4.00;100.00;94244.13;5073440;28;20207;-77
2021/05/28 02:49:57;;;;;;;5.87;3.33;;;;;;;4.00;100.00;94241.53;5073122;28;20230;-77
2021/05/28 02:52:23;;;;;;;8.33;3.53;;;;;;;3.98;100.00;94230.56;5073138;28;20230;-78
2021/05/28 02:54:49;;;;;;;8.00;3.50;;;;;;;3.98;100.00;94240.88;5073351;28;20722;-78
2021/05/28 02:57:15;;;;;;;4.10;2.77;;;;;;;3.80;100.00;94247.81;5072692;28;20252;-79
2021/05/28 02:59:40;;;;;;;7.30;3.40;;;;;;;3.72;100.00;94258.06;5073180;28;20195;-79
2021/05/28 03:02:06;;;;;;;12.43;3.67;;;;;;;3.78;100.00;94247.16;5073084;28;20198;-78
2021/05/28 03:04:33;;;;;;;7.70;3.97;;;;;;;3.76;100.00;94249.06;5073054;28;20285;-78
2021/05/28 03:06:59;;;;;;;6.07;4.03;;;;;;;3.83;100.00;94239.75;5072944;28;20202;-79
2021/05/28 03:09:25;;;;;;;5.60;3.70;;;;;;;3.93;100.00;94243.09;5073114;28;20202;-78
2021/05/28 03:11:51;;;;;;;5.20;3.57;;;;;;;3.89;100.00;94239.97;5072889;28;20237;-77
2021/05/28 03:14:17;;;;;;;10.50;3.50;;;;;;;3.81;100.00;94241.69;5072932;28;20202;-79
2021/05/28 03:16:44;;;;;;;4.57;3.10;;;;;;;3.76;100.00;94241.31;5072907;28;20202;-78
2021/05/28 03:19:18;;;;;;;6.93;3.23;;;;;;;3.63;100.00;94241.66;5072975;28;20210;-78
2021/05/28 03:24:25;;;;;;;7.87;3.40;;;;;;;3.57;100.00;94242.28;5072011;28;20234;-78
2021/05/28 03:26:51;;;;;;;6.30;3.10;;;;;;;3.49;100.00;94243.00;5072840;28;20205;-78
2021/05/28 03:29:17;;;;;;;7.77;3.93;;;;;;;3.51;100.00;94241.06;5072758;28;20195;-78
2021/05/28 03:31:43;;;;;;;10.63;4.00;;;;;;;3.53;100.00;94252.09;5072448;28;20309;-79
2021/05/28 03:34:09;;;;;;;6.60;3.70;;;;;;;3.59;100.00;94254.06;5072610;28;20202;-78
2021/05/28 03:36:35;;;;;;;8.57;3.70;;;;;;;3.51;100.00;94254.81;5072858;28;20207;-77
2021/05/28 03:39:03;;;;;;;6.63;3.67;;;;;;;3.49;100.00;94253.31;5072700;28;20604;-78
2021/05/28 03:41:29;;;;;;;9.07;4.07;;;;;;;3.50;100.00;94254.94;5072713;28;20214;-77
2021/05/28 03:43:55;;;;;;;6.75;4.00;;;;;;;3.49;100.00;94258.47;5072547;28;20940;-78
2021/05/28 03:46:21;;;;;;;6.03;3.63;;;;;;;3.34;100.00;94261.53;5072601;28;20625;-79
2021/05/28 03:48:47;;;;;;;4.23;3.40;;;;;;;3.29;100.00;94258.59;5072680;28;20252;-78
2021/05/28 03:51:13;;;;;;;10.27;3.60;;;;;;;3.23;100.00;94264.34;5072641;28;20222;-76
2021/05/28 03:53:39;;;;;;;6.53;3.90;;;;;;;3.31;100.00;94261.84;5072622;28;20199;-77
2021/05/28 03:56:06;;;;;;;6.43;3.67;;;;;;;3.29;100.00;94256.00;5072826;28;20198;-78
2021/05/28 03:58:32;;;;;;;5.40;3.57;;;;;;;3.26;100.00;94258.88;5072367;28;20240;-78
2021/05/28 04:00:58;;;;;;;6.33;3.60;;;;;;;3.26;100.00;94251.13;5072523;28;20569;-77
2021/05/28 04:03:24;;;;;;;5.87;4.00;;;;;;;3.38;100.00;94251.75;5072409;28;20206;-78
2021/05/28 04:05:50;;;;;;;8.57;4.27;;;;;;;3.43;100.00;94253.88;5072755;28;20645;-78
2021/05/28 04:08:16;;;;;;;5.30;3.73;;;;;;;3.37;100.00;94249.31;5073494;28;20234;-77
2021/05/28 04:10:42;;;;;;;7.47;4.27;;;;;;;3.43;100.00;94252.16;5076150;28;20592;-77
2021/05/28 04:13:11;;;;;;;9.73;3.57;;;;;;;3.44;100.00;94251.16;5076201;28;20286;-77
2021/05/28 04:15:37;;;;;;;11.63;4.37;;;;;;;3.46;100.00;94248.44;5076232;28;20236;-78
2021/05/28 04:18:03;;;;;;;11.70;4.33;;;;;;;3.45;100.00;94257.16;5075897;28;20198;-79
2021/05/28 04:20:29;;;;;;;5.60;3.50;;;;;;;3.37;100.00;94249.31;5076242;28;20248;-79
2021/05/28 04:22:55;;;;;;;5.13;3.20;;;;;;;3.34;100.00;94251.22;5076001;28;20234;-78
2021/05/28 04:25:20;;;;;;;6.30;3.67;;;;;;;3.34;100.00;94245.25;5076382;28;20199;-78
2021/05/28 04:27:47;;;;;;;6.67;3.20;;;;;;;3.34;100.00;94251.22;5077834;28;20191;-78
2021/05/28 04:30:16;;;;;;;10.63;3.37;;;;;;;3.36;100.00;94248.50;5075657;28;20226;-78
2021/05/28 04:32:42;;;;;;;5.17;3.37;;;;;;;3.48;100.00;94243.94;5076048;28;20320;-78
2021/05/28 04:35:08;;;;;;;8.43;3.67;;;;;;;3.55;100.00;94250.16;5075905;28;20206;-78
2021/05/28 04:37:34;;;;;;;8.20;4.10;;;;;;;3.58;100.00;94234.38;5075968;28;20199;-78
2021/05/28 04:40:00;;;;;;;8.00;4.17;;;;;;;3.67;100.00;94238.66;5075713;28;20719;-78
2021/05/28 04:42:26;;;;;;;6.87;3.40;;;;;;;3.73;100.00;94232.13;5075692;28;20622;-79
2021/05/28 04:44:52;;;;;;;5.63;3.30;;;;;;;3.77;100.00;94230.03;5075555;28;20199;-78
2021/05/28 04:47:19;;;;;;;8.10;3.67;;;;;;;3.90;100.00;94235.66;5075736;28;20206;-77
2021/05/28 04:49:46;;;;;;;7.07;3.80;;;;;;;3.98;100.00;94233.13;5075583;28;20199;-78
2021/05/28 04:52:12;;;;;;;7.20;3.60;;;;;;;4.05;100.00;94239.31;5075627;28;20226;-78
2021/05/28 04:54:38;;;;;;;8.63;3.93;;;;;;;4.18;100.00;94241.53;5075529;28;20205;-78
2021/05/28 04:57:04;;;;;;;5.80;3.27;;;;;;;4.28;100.00;94249.22;5075471;28;20199;-78
2021/05/28 04:59:30;;;;;;;7.40;3.37;;;;;;;4.31;100.00;94243.72;5075232;28;20256;-78
2021/05/28 05:01:56;;;;;;;6.43;3.27;;;;;;;4.39;100.00;94237.81;5075458;28;20203;-77
2021/05/28 05:04:23;;;;;;;8.93;3.27;;;;;;;4.54;100.00;94243.22;5075494;28;20210;-78
2021/05/28 05:06:49;;;;;;;12.73;3.83;;;;;;;4.69;100.00;94241.72;5075513;28;20198;-78
2021/05/28 05:09:14;;;;;;;5.93;3.47;;;;;;;4.78;100.00;94240.81;5074988;28;20256;-78
2021/05/28 05:11:40;;;;;;;7.82;3.65;;;;;;;4.90;100.00;94249.09;5074710;28;20466;-78
2021/05/28 05:14:06;;;;;;;4.20;3.20;;;;;;;5.05;100.00;94251.13;5074896;28;20206;-77
2021/05/28 05:16:34;;;;;;;8.03;3.20;;;;;;;5.21;100.00;94247.78;5075154;28;20198;-77
2021/05/28 05:19:00;;;;;;;4.23;3.10;;;;;;;5.32;100.00;94250.09;5074726;28;20270;-77
2021/05/28 05:21:27;;;;;;;4.07;2.90;;;;;;;5.75;100.00;94250.88;5074969;28;20210;-78
2021/05/28 05:23:54;;;;;;;4.07;2.63;;;;;;;6.47;100.00;94247.69;5074814;28;20227;-78
2021/05/28 05:26:20;;;;;;;4.23;3.23;;;;;;;7.25;100.00;94246.22;5074789;28;20601;-78
2021/05/28 05:28:46;;;;;;;6.07;2.43;;;;;;;7.74;100.00;94245.19;5074746;28;20207;-79
2021/05/28 05:31:12;;;;;;;3.90;2.47;;;;;;;8.07;100.00;94245.78;5074812;28;20589;-79
2021/05/28 05:33:38;;;;;;;3.00;2.07;;;;;;;8.23;100.00;94247.47;5074858;28;20203;-78
2021/05/28 05:36:04;;;;;;;3.00;1.90;;;;;;;9.22;100.00;94255.19;5074607;28;20646;-79
2021/05/28 05:38:31;;;;;;;2.10;1.60;;;;;;;10.78;100.00;94244.41;5074790;28;20565;-78
2021/05/28 05:40:57;;;;;;;2.63;1.63;;;;;;;12.46;100.00;94246.75;5074598;28;20202;-79
2021/05/28 05:43:23;;;;;;;2.90;1.30;;;;;;;13.80;100.00;94251.81;5074448;28;20257;-79
2021/05/28 05:45:49;;;;;;;2.50;1.40;;;;;;;14.53;100.00;94242.72;5074726;28;20310;-78
2021/05/28 05:48:16;;;;;;;2.20;1.40;;;;;;;15.80;100.00;94245.00;5074254;28;20213;-79
2021/05/28 05:50:42;;;;;;;1.77;1.38;;;;;;;16.86;93.23;94241.16;5074376;28;20233;-79
2021/05/28 05:53:08;;;;;;;2.10;1.10;;;;;;;17.67;89.99;94262.47;5074238;28;20201;-79
2021/05/28 05:55:34;;;;;;;2.83;0.93;;;;;;;18.55;74.12;94259.69;5074134;28;20199;-78
2021/05/28 05:58:00;;;;;;;2.63;1.00;;;;;;;18.97;68.99;94260.16;5074066;28;20195;-77
2021/05/28 06:00:26;;;;;;;1.10;0.80;;;;;;;18.89;69.55;94255.25;5074307;28;20210;-77
2021/05/28 06:02:52;;;;;;;3.08;0.90;;;;;;;19.01;66.68;94261.28;5074261;28;20248;-78
2021/05/28 06:05:18;;;;;;;2.90;1.00;;;;;;;19.16;59.79;94257.25;5074073;28;20198;-79
2021/05/28 06:07:44;;;;;;;2.03;1.00;;;;;;;18.96;60.53;94252.47;5073923;28;20687;-79
2021/05/28 06:10:12;;;;;;;2.83;1.10;;;;;;;18.72;57.03;94267.63;5073866;28;20222;-78
2021/05/28 06:12:39;;;;;;;3.13;1.58;;;;;;;18.08;60.49;94274.69;5074115;28;20562;-79
2021/05/28 06:15:06;;;;;;;4.20;1.48;;;;;;;16.86;62.54;94268.31;5073777;28;20201;-78
2021/05/28 06:17:32;;;;;;;1.58;1.10;;;;;;;16.52;65.17;94268.00;5073831;28;20566;-78
2021/05/28 06:19:58;;;;;;;1.65;1.10;;;;;;;15.98;68.09;94272.34;5076021;28;20282;-79
2021/05/28 06:22:24;;;;;;;5.15;0.90;;;;;;;15.30;71.84;94271.44;5073821;28;20260;-78
2021/05/28 06:24:50;;;;;;;2.22;1.00;;;;;;;14.47;72.57;94278.53;5073382;28;20226;-79
2021/05/28 06:27:16;;;;;;;1.48;1.10;;;;;;;13.91;76.89;94277.41;5073604;28;20799;-80
2021/05/28 06:29:43;;;;;;;2.28;1.42;;;;;;;14.48;77.57;94274.09;5073668;28;20199;-78
2021/05/28 06:32:09;;;;;;;2.78;1.40;;;;;;;14.27;76.42;94278.63;5072822;28;20230;-80
2021/05/28 06:34:35;;;;;;;2.72;1.42;;;;;;;14.06;78.30;94277.94;5073547;28;20570;-78
2021/05/28 06:37:01;;;;;;;3.15;1.50;;;;;;;13.12;80.80;94273.94;5073454;28;20202;-78
2021/05/28 06:39:27;;;;;;;2.78;1.48;;;;;;;11.49;89.95;94282.66;5073487;28;20207;-79
2021/05/28 06:41:53;;;;;;;4.30;1.80;;;;;;;11.19;92.23;94279.44;5073438;28;20203;-79
2021/05/28 06:44:23;;;;;;;4.68;1.85;;;;;;;10.66;98.22;94280.69;5073447;28;20199;-80
2021/05/28 06:46:50;;;;;;;5.13;1.90;;;;;;;10.30;100.00;94294.56;5073711;28;20226;-78
2021/05/28 06:49:16;;;;;;;3.37;1.90;;;;;;;10.73;98.76;94291.19;5073261;28;20202;-79
2021/05/28 06:51:42;;;;;;;3.23;1.80;;;;;;;10.32;100.00;94292.59;5073149;28;20226;-78
2021/05/28 06:54:08;;;;;;;4.70;2.00;;;;;;;10.61;99.83;94290.88;5073130;28;20206;-80
2021/05/28 06:56:34;;;;;;;6.03;2.20;;;;;;;10.74;95.59;94296.22;5073365;28;20199;-79
2021/05/28 06:59:00;;;;;;;3.20;2.37;;;;;;;10.57;97.68;94300.06;5073250;28;20291;-78
2021/05/28 07:01:26;;;;;;;4.83;2.30;;;;;;;10.63;98.76;94304.56;5072999;28;20561;-78
2021/05/28 07:03:53;;;;;;;4.37;2.23;;;;;;;10.60;97.32;94304.91;5073158;28;20226;-78
2021/05/28 07:06:19;;;;;;;4.20;2.30;;;;;;;10.77;97.77;94304.66;5073049;28;20225;-78
2021/05/28 07:08:45;;;;;;;5.60;2.30;;;;;;;10.79;96.83;94303.50;5072889;28;20198;-79
2021/05/28 07:11:11;;;;;;;5.70;2.57;;;;;;;10.80;95.90;94299.06;5072973;28;20253;-78
2021/05/28 07:13:38;;;;;;;4.70;2.20;;;;;;;11.13;98.20;94294.09;5072872;28;20669;-78
2021/05/28 07:16:06;;;;;;;3.63;2.80;;;;;;;11.15;96.16;94296.50;5072982;28;20207;-79
2021/05/28 07:18:31;;;;;;;3.47;2.60;;;;;;;11.24;98.14;94297.97;5072947;28;20569;-79
2021/05/28 07:20:59;;;;;;;22.53;3.90;;;;;;;11.26;96.41;94299.41;5073058;28;20203;-81
2021/05/28 07:23:29;;;;;;;36.37;5.00;;;;;;;11.29;96.27;94300.81;5072510;28;20732;-78
2021/05/28 07:25:55;;;;;;;4.73;2.90;;;;;;;11.33;95.87;94299.44;5072782;28;20226;-78
2021/05/28 07:28:21;;;;;;;6.27;2.90;;;;;;;11.58;95.41;94293.75;5072716;28;20199;-77
2021/05/28 07:30:48;;;;;;;4.67;2.87;;;;;;;11.58;95.17;94293.75;5072588;28;20261;-80
2021/05/28 07:33:14;;;;;;;4.53;3.37;;;;;;;11.73;93.27;94289.19;5072884;28;20203;-79
2021/05/28 07:35:40;;;;;;;5.87;3.10;;;;;;;11.68;92.04;94290.78;5072901;28;20203;-78
2021/05/28 07:38:06;;;;;;;6.37;3.50;;;;;;;11.61;94.48;94288.94;5077418;28;20198;-77
2021/05/28 07:40:32;;;;;;;5.40;3.33;;;;;;;11.82;95.28;94292.44;5092882;28;20202;-77
2021/05/28 07:42:59;;;;;;;8.90;3.63;;;;;;;11.95;92.52;94291.72;5095826;28;20200;-77
2021/05/28 07:45:25;;;;;;;7.97;3.70;;;;;;;11.86;92.91;94291.06;5097059;28;20201;-76
2021/05/28 07:47:51;;;;;;;6.03;3.60;;;;;;;12.15;92.12;94289.97;5097327;28;20202;-77
2021/05/28 07:50:17;;;;;;;7.10;4.17;;;;;;;12.29;93.27;94297.88;5097221;28;20222;-77
2021/05/28 07:52:43;;;;;;;5.03;3.50;;;;;;;12.81;89.37;94288.47;5097259;28;20205;-79
2021/05/28 07:55:11;;;;;;;4.40;3.50;;;;;;;13.17;87.37;94286.44;5097084;28;20194;-78
2021/05/28 07:57:37;;;;;;;5.70;3.97;;;;;;;12.93;85.77;94291.31;5096862;28;20201;-79
2021/05/28 08:00:05;;;;;;;7.93;3.40;;;;;;;12.95;85.90;94291.91;5096715;28;20653;-77
2021/05/28 08:02:31;;;;;;;5.40;3.67;;;;;;;12.93;86.39;94294.72;5096665;28;20198;-79
2021/05/28 08:04:57;;;;;;;5.07;3.70;;;;;;;12.67;88.13;94289.47;5096555;28;20209;-78
2021/05/28 08:07:23;;;;;;;7.83;3.67;;;;;;;12.73;89.18;94293.91;5096671;28;20199;-77
2021/05/28 08:09:49;;;;;;;6.55;4.22;;;;;;;12.66;89.39;94298.34;5095385;28;20456;-78
2021/05/28 08:12:16;;;;;;;6.60;3.97;;;;;;;12.76;87.27;94296.13;5097562;28;20225;-80
2021/05/28 08:14:43;;;;;;;7.37;4.57;;;;;;;12.53;89.00;94299.13;5096520;28;20553;-78
2021/05/28 08:17:09;;;;;;;7.40;3.87;;;;;;;12.84;88.68;94295.13;5096302;28;20714;-77
2021/05/28 08:19:34;;;;;;;7.47;4.23;;;;;;;12.73;88.25;94293.91;5096209;28;20567;-78
2021/05/28 08:22:00;;;;;;;8.13;4.83;;;;;;;12.92;86.87;94302.78;5080084;28;20195;-76
2021/05/28 08:24:26;;;;;;;10.03;5.00;;;;;;;12.76;88.20;94296.94;5075858;28;20581;-76
2021/05/28 08:26:52;;;;;;;7.03;4.37;;;;;;;12.85;87.75;94302.78;5075820;28;20210;-77
2021/05/28 08:29:19;;;;;;;8.40;5.00;;;;;;;12.83;87.39;94310.03;5075925;28;20203;-77
2021/05/28 08:31:45;;;;;;;8.03;4.17;;;;;;;13.18;87.69;94307.22;5075758;28;20227;-76
2021/05/28 08:34:11;;;;;;;6.53;4.73;;;;;;;13.46;87.30;94304.38;5075649;28;20557;-77
2021/05/28 08:36:37;;;;;;;7.03;4.70;;;;;;;13.48;85.84;94304.19;5077897;28;20680;-76
2021/05/28 08:39:04;;;;;;;5.90;3.90;;;;;;;13.65;82.84;94301.91;5096137;28;20201;-76
2021/05/28 08:41:30;;;;;;;7.72;4.10;;;;;;;13.67;82.48;94305.97;5095896;28;20220;-76
2021/05/28 08:43:59;;;;;;;6.40;3.70;;;;;;;13.11;83.91;94301.19;5095902;28;20201;-75
2021/05/28 08:46:26;;;;;;;9.07;4.18;;;;;;;13.46;82.12;94298.34;5095675;28;20248;-75
2021/05/28 08:48:52;;;;;;;6.93;4.00;;;;;;;13.82;82.17;94297.00;5095626;28;20863;-77
2021/05/28 08:51:19;;;;;;;4.47;3.42;;;;;;;14.55;78.79;94295.84;5095705;28;20225;-77
2021/05/28 08:53:45;;;;;;;7.47;3.47;;;;;;;14.66;76.30;94289.97;5093949;28;20433;-77
2021/05/28 08:56:11;;;;;;;8.05;3.80;;;;;;;14.29;78.47;94292.38;5095723;28;20198;-77
2021/05/28 08:58:38;;;;;;;7.60;3.72;;;;;;;13.96;75.44;94293.34;5094531;28;20202;-75
2021/05/28 09:01:07;;;;;;;9.38;3.45;;;;;;;13.92;80.11;94297.38;5095437;28;20225;-77
2021/05/28 09:03:36;;;;;;;5.38;3.60;;;;;;;13.73;77.84;94299.06;5095373;28;20376;-76
2021/05/28 09:06:04;;;;;;;6.35;2.80;;;;;;;13.85;79.67;94296.59;5095465;28;20206;-76
2021/05/28 09:08:31;;;;;;;5.70;3.42;;;;;;;14.17;77.86;94304.53;5095402;28;20278;-76
2021/05/28 09:11:05;;;;;;;5.70;3.60;;;;;;;13.42;83.74;94291.88;5095250;28;20226;-76
2021/05/28 09:13:33;;;;;;;7.60;3.57;;;;;;;13.33;85.24;94294.72;5095223;28;20201;-77
2021/05/28 09:16:07;;;;;;;6.70;3.47;;;;;;;13.45;84.45;94294.09;5095280;28;20276;-76
2021/05/28 09:18:48;;;;;;;7.23;4.03;;;;;;;13.48;82.60;94304.19;5095378;28;20214;-76
2021/05/28 09:21:22;;;;;;;4.90;3.20;;;;;;;13.50;82.10;94302.94;5095190;28;20236;-76
2021/05/28 09:23:49;;;;;;;4.57;3.20;;;;;;;13.27;80.06;94292.06;5095011;28;20230;-76
2021/05/28 09:26:15;;;;;;;5.03;3.03;;;;;;;13.35;80.33;94302.38;5094967;28;20202;-75
2021/05/28 09:28:43;;;;;;;4.40;2.87;;;;;;;13.49;79.29;94303.19;5095368;28;20300;-77
2021/05/28 09:31:13;;;;;;;6.90;3.00;;;;;;;14.03;76.90;94291.47;5094963;28;20217;-78
2021/05/28 09:33:42;;;;;;;6.13;2.53;;;;;;;14.23;72.58;94294.00;5094948;28;20202;-77
2021/05/28 09:36:17;;;;;;;6.40;2.90;;;;;;;14.60;72.65;94298.69;5094820;28;20297;-77
2021/05/28 09:39:05;;;;;;;7.35;3.28;;;;;;;13.92;79.05;94292.13;5094473;28;20262;-76
2021/05/28 09:41:39;;;;;;;6.57;3.75;;;;;;;13.47;81.55;94292.88;5094816;28;20202;-76
2021/05/28 09:44:08;;;;;;;7.90;3.70;;;;;;;13.90;80.24;94294.16;5094681;28;20545;-76
2021/05/28 09:46:33;;;;;;;6.70;3.00;;;;;;;14.06;80.29;94290.28;5094706;28;20201;-77
2021/05/28 09:49:07;;;;;;;7.18;3.60;;;;;;;14.27;77.96;94289.13;5093717;28;20672;-77
2021/05/28 09:51:33;;;;;;;5.43;3.00;;;;;;;13.96;78.98;94285.47;5094458;28;20226;-78
2021/05/28 09:54:12;;;;;;;5.60;3.08;;;;;;;13.81;77.51;94287.53;5094452;28;20229;-77
2021/05/28 09:56:38;;;;;;;5.35;3.20;;;;;;;13.49;80.59;94282.19;5094427;28;20194;-77
2021/05/28 09:59:07;;;;;;;5.18;2.88;;;;;;;13.56;81.51;94293.47;5094400;28;20289;-76
2021/05/28 10:01:34;;;;;;;5.13;2.90;;;;;;;13.49;79.47;94282.19;5094053;28;20677;-76
2021/05/28 10:04:02;;;;;;;6.67;2.80;;;;;;;13.49;78.60;94283.00;5094078;28;20205;-76
2021/05/28 10:06:30;;;;;;;6.70;2.90;;;;;;;14.01;78.56;94269.88;5093436;28;20226;-76
2021/05/28 10:08:58;;;;;;;6.20;3.07;;;;;;;14.21;75.27;94277.66;5094264;28;20198;-76
2021/05/28 10:11:26;;;;;;;5.27;3.40;;;;;;;14.09;74.63;94275.91;5094129;28;20234;-76
2021/05/28 10:13:54;;;;;;;3.50;2.58;;;;;;;14.50;74.28;94269.41;5094120;28;20225;-77
2021/05/28 10:16:20;;;;;;;3.65;2.63;;;;;;;14.83;72.04;94266.56;5094035;28;20202;-76
2021/05/28 10:18:48;;;;;;;5.32;2.97;;;;;;;14.93;71.04;94261.63;5090875;28;20463;-76
2021/05/28 10:21:15;;;;;;;2.72;2.20;;;;;;;15.07;69.60;94266.78;5073775;28;20222;-76
2021/05/28 10:23:43;;;;;;;3.88;2.20;;;;;;;15.16;68.49;94261.03;5073417;28;20253;-76
2021/05/28 10:26:09;;;;;;;6.03;2.90;;;;;;;15.40;70.20;94257.78;5073269;28;20198;-77
2021/05/28 10:28:36;;;;;;;3.25;2.80;;;;;;;14.97;70.72;94264.63;5073556;28;20212;-77
2021/05/28 10:31:03;;;;;;;3.65;2.67;;;;;;;15.28;71.55;94262.97;5073628;28;20223;-77
2021/05/28 10:33:31;;;;;;;4.97;2.72;;;;;;;15.22;69.80;94269.06;5073627;28;20194;-78
2021/05/28 10:35:58;;;;;;;4.53;3.28;;;;;;;15.10;72.41;94275.03;5073490;28;20218;-77
2021/05/28 10:39:05;;;;;;;6.55;3.55;;;;;;;15.22;72.51;94269.91;5073406;28;20209;-76
2021/05/28 10:41:42;;;;;;;6.57;3.05;;;;;;;15.36;72.41;94275.84;5011608;28;20680;-76
2021/05/28 10:44:11;;;;;;;9.88;3.47;;;;;;;15.26;72.53;94276.31;5011374;28;20201;-77
2021/05/28 10:46:53;;;;;;;5.15;3.00;;;;;;;15.25;74.90;94271.28;5046888;28;20298;-76
2021/05/28 10:49:34;;;;;;;4.20;2.63;;;;;;;15.18;70.98;94273.97;5073174;28;20198;-77
2021/05/28 10:52:05;;;;;;;9.65;3.08;;;;;;;14.97;72.04;94272.53;5072613;28;20458;-75
2021/05/28 10:54:36;;;;;;;8.55;2.78;;;;;;;14.71;70.55;94274.34;5073232;28;20194;-74
2021/05/28 10:57:47;;;;;;;2.80;2.25;;;;;;;14.89;71.17;94267.53;5073149;28;20570;-76
2021/05/28 11:00:22;;;;;;;3.40;2.50;;;;;;;14.73;70.63;94268.88;5066847;28;20198;-75
2021/05/28 11:02:53;;;;;;;5.13;2.38;;;;;;;15.01;67.46;94268.47;5071383;28;20197;-75
2021/05/28 11:05:48;;;;;;;4.47;2.20;;;;;;;15.05;69.50;94263.56;5071244;28;20618;-77
2021/05/28 11:08:47;;;;;;;4.93;2.55;;;;;;;15.06;68.28;94265.97;5072995;28;20301;-77
2021/05/28 11:11:58;;;;;;;3.17;2.33;;;;;;;15.38;71.62;94258.00;5072991;28;20234;-77
2021/05/28 11:14:26;;;;;;;2.92;1.77;;;;;;;15.86;66.51;94256.50;5072909;28;20226;-76
2021/05/28 11:17:18;;;;;;;2.95;2.10;;;;;;;15.79;66.97;94253.94;5072795;28;20198;-76
2021/05/28 11:19:46;;;;;;;3.20;1.75;;;;;;;16.18;67.74;94254.47;5072944;28;20209;-77
2021/05/28 11:22:15;;;;;;;2.45;1.98;;;;;;;15.93;65.93;94253.78;5072934;28;20241;-77
2021/05/28 11:24:59;;;;;;;4.20;2.08;;;;;;;15.82;66.46;94253.50;5072636;28;20265;-76
2021/05/28 11:27:39;;;;;;;4.38;2.33;;;;;;;15.33;68.03;94244.69;5072999;28;20198;-76
2021/05/28 11:30:38;;;;;;;4.35;1.90;;;;;;;15.82;70.11;94253.50;5072814;28;20194;-77
2021/05/28 11:33:05;;;;;;;3.80;2.38;;;;;;;15.47;67.99;94247.97;5072811;28;20209;-76
2021/05/28 11:35:39;;;;;;;6.13;2.67;;;;;;;15.41;68.22;94249.66;5072619;28;20298;-77
2021/05/28 11:38:09;;;;;;;6.47;2.60;;;;;;;15.09;69.40;94238.47;5072899;28;20267;-76